createdAt,value
2023-05-07T00:01:00.760Z,9.95
2023-05-07T00:02:08.741Z,9.94
2023-05-07T00:03:10.954Z,9.96
2023-05-07T00:04:16.376Z,9.95
2023-05-07T00:05:18.742Z,9.90
2023-05-07T00:06:23.901Z,9.87
2023-05-07T00:07:26.039Z,9.86
2023-05-07T00:08:30.697Z,9.85
2023-05-07T00:09:33.486Z,9.83
2023-05-07T00:10:38.186Z,9.83
2023-05-07T00:11:40.378Z,9.85
2023-05-07T00:12:45.118Z,9.84
2023-05-07T00:13:47.444Z,9.86
2023-05-07T00:16:29.116Z,9.87
2023-05-07T00:19:29.126Z,9.82
2023-05-07T00:20:31.618Z,9.78
2023-05-07T00:21:36.243Z,9.75
2023-05-07T00:22:38.850Z,9.75
2023-05-07T00:25:36.139Z,9.71
2023-05-07T00:26:38.299Z,9.72
2023-05-07T00:27:42.979Z,9.68
2023-05-07T00:28:45.113Z,9.68
2023-05-07T00:29:49.793Z,9.64
2023-05-07T00:30:51.889Z,9.63
2023-05-07T00:31:56.824Z,9.60
2023-05-07T00:32:58.935Z,9.61
2023-05-07T00:34:03.916Z,9.60
2023-05-07T00:35:10.256Z,9.63
2023-05-07T00:36:15.108Z,9.67
2023-05-07T00:37:17.276Z,9.67
2023-05-07T00:38:21.931Z,9.63
2023-05-07T00:39:24.040Z,9.61
2023-05-07T00:40:28.743Z,9.66
2023-05-07T00:41:31.867Z,9.66
2023-05-07T00:42:36.663Z,9.66
2023-05-07T00:43:39.695Z,9.67
2023-05-07T00:44:44.357Z,9.63
2023-05-07T00:45:46.740Z,9.63
2023-05-07T00:46:52.938Z,9.67
2023-05-07T00:47:56.665Z,9.71
2023-05-07T00:49:01.781Z,9.73
2023-05-07T00:50:04.773Z,9.72
2023-05-07T00:51:13.175Z,9.71
2023-05-07T00:52:17.998Z,9.74
2023-05-07T00:53:22.942Z,9.71
2023-05-07T00:54:25.158Z,9.72
2023-05-07T00:55:30.055Z,9.74
2023-05-07T00:56:36.008Z,9.71
2023-05-07T00:57:40.749Z,9.75
2023-05-07T00:58:45.633Z,9.75
2023-05-07T00:59:47.863Z,9.77
2023-05-07T01:01:23.073Z,9.80
2023-05-07T01:03:17.211Z,9.83
2023-05-07T01:04:22.749Z,9.81
2023-05-07T01:05:27.421Z,9.84
2023-05-07T01:06:37.050Z,9.79
2023-05-07T01:09:42.510Z,9.78
2023-05-07T01:10:45.772Z,9.73
2023-05-07T01:11:51.256Z,9.71
2023-05-07T01:12:57.824Z,9.71
2023-05-07T01:14:01.137Z,9.68
2023-05-07T01:15:06.338Z,9.64
2023-05-07T01:16:10.225Z,9.60
2023-05-07T01:17:15.078Z,9.58
2023-05-07T01:18:17.670Z,9.55
2023-05-07T01:19:23.430Z,9.56
2023-05-07T01:20:26.391Z,9.53
2023-05-07T01:21:36.514Z,9.55
2023-05-07T01:22:41.607Z,9.54
2023-05-07T01:23:47.186Z,9.51
2023-05-07T01:24:49.433Z,9.49
2023-05-07T01:25:57.203Z,9.50
2023-05-07T01:26:59.299Z,9.49
2023-05-07T01:28:03.979Z,9.46
2023-05-07T01:29:06.080Z,9.47
2023-05-07T01:30:12.562Z,9.46
2023-05-07T01:31:17.497Z,9.50
2023-05-07T01:32:25.519Z,9.56
2023-05-07T01:33:30.838Z,9.55
2023-05-07T01:34:38.331Z,9.57
2023-05-07T01:35:45.060Z,9.57
2023-05-07T01:37:07.417Z,9.59
2023-05-07T01:38:13.662Z,9.60
2023-05-07T01:39:19.512Z,9.61
2023-05-07T01:40:22.409Z,9.63
2023-05-07T01:41:27.175Z,9.67
2023-05-07T01:42:30.793Z,9.66
2023-05-07T01:43:35.597Z,9.68
2023-05-07T01:44:37.754Z,9.67
2023-05-07T01:45:43.127Z,9.69
2023-05-07T01:46:45.356Z,9.66
2023-05-07T01:47:50.683Z,9.64
2023-05-07T01:48:53.818Z,9.59
2023-05-07T01:50:00.292Z,9.53
2023-05-07T01:51:07.592Z,9.50
2023-05-07T01:52:12.767Z,9.46
2023-05-07T01:54:02.633Z,9.44
2023-05-07T01:55:11.106Z,9.40
2023-05-07T01:56:13.308Z,9.36
2023-05-07T01:57:17.996Z,9.31
2023-05-07T01:58:20.204Z,9.29
2023-05-07T01:59:24.876Z,9.24
2023-05-07T02:00:30.139Z,9.18
2023-05-07T02:01:32.272Z,9.18
2023-05-07T02:02:37.763Z,9.21
2023-05-07T02:03:40.138Z,9.16
2023-05-07T02:04:46.730Z,9.14
2023-05-07T02:06:18.837Z,9.10
2023-05-07T02:07:23.678Z,9.11
2023-05-07T02:08:25.946Z,9.08
2023-05-07T02:09:30.671Z,9.09
2023-05-07T02:10:35.296Z,9.15
2023-05-07T02:11:40.034Z,9.17
2023-05-07T02:12:42.276Z,9.17
2023-05-07T02:13:46.987Z,9.17
2023-05-07T02:14:49.171Z,9.19
2023-05-07T02:15:54.874Z,9.23
2023-05-07T02:16:57.036Z,9.22
2023-05-07T02:18:02.884Z,9.22
2023-05-07T02:19:04.966Z,9.22
2023-05-07T02:20:14.589Z,9.24
2023-05-07T02:21:16.730Z,9.27
2023-05-07T02:22:21.554Z,9.21
2023-05-07T02:23:23.707Z,9.22
2023-05-07T02:24:28.315Z,9.17
2023-05-07T02:27:36.721Z,9.17
2023-05-07T02:28:38.834Z,9.16
2023-05-07T02:29:43.451Z,9.18
2023-05-07T02:30:45.581Z,9.20
2023-05-07T02:31:52.015Z,9.16
2023-05-07T02:32:54.216Z,9.13
2023-05-07T02:33:58.877Z,9.09
2023-05-07T02:35:00.926Z,9.08
2023-05-07T02:36:13.354Z,9.03
2023-05-07T02:37:15.379Z,9.00
2023-05-07T02:38:20.009Z,8.94
2023-05-07T02:39:22.069Z,8.91
2023-05-07T02:40:26.908Z,8.85
2023-05-07T02:41:29.326Z,8.81
2023-05-07T02:42:36.623Z,8.78
2023-05-07T02:43:38.701Z,8.72
2023-05-07T02:44:43.469Z,8.68
2023-05-07T02:45:45.619Z,8.62
2023-05-07T02:46:50.292Z,8.59
2023-05-07T02:47:52.378Z,8.57
2023-05-07T02:48:57.047Z,8.50
2023-05-07T02:49:59.101Z,8.49
2023-05-07T02:51:03.980Z,8.47
2023-05-07T02:52:06.431Z,8.46
2023-05-07T02:53:11.096Z,8.47
2023-05-07T02:54:13.120Z,8.47
2023-05-07T02:55:18.142Z,8.45
2023-05-07T02:56:20.207Z,8.50
2023-05-07T02:57:24.935Z,8.51
2023-05-07T02:58:29.832Z,8.51
2023-05-07T02:59:34.451Z,8.53
2023-05-07T03:00:36.745Z,8.53
2023-05-07T03:01:41.399Z,8.55
2023-05-07T03:02:43.584Z,8.52
2023-05-07T03:03:48.432Z,8.50
2023-05-07T03:04:50.515Z,8.51
2023-05-07T03:05:55.175Z,8.52
2023-05-07T03:06:57.226Z,8.54
2023-05-07T03:08:01.875Z,8.53
2023-05-07T03:09:04.490Z,8.52
2023-05-07T03:10:10.144Z,8.54
2023-05-07T03:11:12.481Z,8.53
2023-05-07T03:12:17.122Z,8.50
2023-05-07T03:13:19.342Z,8.46
2023-05-07T03:14:26.735Z,8.47
2023-05-07T03:15:28.747Z,8.41
2023-05-07T03:16:33.425Z,8.39
2023-05-07T03:17:35.583Z,8.38
2023-05-07T03:18:40.254Z,8.38
2023-05-07T03:19:42.311Z,8.32
2023-05-07T03:20:47.065Z,8.33
2023-05-07T03:21:49.219Z,8.35
2023-05-07T03:22:53.870Z,8.33
2023-05-07T03:23:55.971Z,8.29
2023-05-07T03:25:00.890Z,8.30
2023-05-07T03:26:02.939Z,8.29
2023-05-07T03:27:07.674Z,8.34
2023-05-07T03:28:12.430Z,8.40
2023-05-07T03:29:14.499Z,8.36
2023-05-07T03:30:21.973Z,8.34
2023-05-07T03:31:23.998Z,8.33
2023-05-07T03:32:28.898Z,8.30
2023-05-07T03:33:30.969Z,8.29
2023-05-07T03:34:35.576Z,8.25
2023-05-07T03:35:37.581Z,8.21
2023-05-07T03:36:42.218Z,8.21
2023-05-07T03:37:44.299Z,8.18
2023-05-07T03:38:48.928Z,8.12
2023-05-07T03:39:51.043Z,8.07
2023-05-07T03:40:55.781Z,8.04
2023-05-07T03:41:58.261Z,8.02
2023-05-07T03:43:03.951Z,7.99
2023-05-07T03:44:06.003Z,7.98
2023-05-07T03:45:12.478Z,7.98
2023-05-07T03:46:17.173Z,7.95
2023-05-07T03:47:21.848Z,7.93
2023-05-07T03:48:23.893Z,7.95
2023-05-07T03:49:28.613Z,7.93
2023-05-07T03:50:30.825Z,7.98
2023-05-07T03:51:37.223Z,8.00
2023-05-07T03:52:39.250Z,8.04
2023-05-07T03:53:43.976Z,8.13
2023-05-07T03:54:46.019Z,8.19
2023-05-07T03:55:50.914Z,8.21
2023-05-07T03:56:52.953Z,8.26
2023-05-07T03:57:57.776Z,8.24
2023-05-07T03:58:59.918Z,8.23
2023-05-07T04:00:05.690Z,8.23
2023-05-07T04:01:08.731Z,8.24
2023-05-07T04:02:16.020Z,8.21
2023-05-07T04:03:18.845Z,8.19
2023-05-07T04:04:24.117Z,8.18
2023-05-07T04:05:26.979Z,8.17
2023-05-07T04:06:31.618Z,8.17
2023-05-07T04:07:33.651Z,8.19
2023-05-07T04:08:38.321Z,8.16
2023-05-07T04:09:40.365Z,8.15
2023-05-07T04:10:45.085Z,8.17
2023-05-07T04:11:47.097Z,8.14
2023-05-07T04:12:51.758Z,8.12
2023-05-07T04:13:53.851Z,8.13
2023-05-07T04:14:58.485Z,8.13
2023-05-07T04:16:02.932Z,8.13
2023-05-07T04:17:08.367Z,8.16
2023-05-07T04:18:13.008Z,8.17
2023-05-07T04:19:18.035Z,8.17
2023-05-07T04:20:20.191Z,8.21
2023-05-07T04:21:25.163Z,8.23
2023-05-07T04:22:27.200Z,8.23
2023-05-07T04:23:32.050Z,8.22
2023-05-07T04:24:34.248Z,8.25
2023-05-07T04:25:38.917Z,8.25
2023-05-07T04:26:41.473Z,8.32
2023-05-07T04:27:46.107Z,8.33
2023-05-07T04:28:48.134Z,8.35
2023-05-07T04:29:52.820Z,8.41
2023-05-07T04:30:54.855Z,8.45
2023-05-07T04:32:00.067Z,8.49
2023-05-07T04:33:02.249Z,8.56
2023-05-07T04:34:10.267Z,8.62
2023-05-07T04:35:12.582Z,8.70
2023-05-07T04:36:17.220Z,8.76
2023-05-07T04:37:19.554Z,8.87
2023-05-07T04:38:24.766Z,8.92
2023-05-07T04:39:26.798Z,9.01
2023-05-07T04:40:31.628Z,9.05
2023-05-07T04:41:34.175Z,9.13
2023-05-07T04:42:38.849Z,9.19
2023-05-07T04:43:41.331Z,9.25
2023-05-07T04:44:47.889Z,9.30
2023-05-07T04:45:51.724Z,9.38
2023-05-07T04:46:56.482Z,9.43
2023-05-07T04:47:58.526Z,9.47
2023-05-07T04:49:03.546Z,9.52
2023-05-07T04:50:09.604Z,9.57
2023-05-07T04:51:14.768Z,9.62
2023-05-07T04:52:16.931Z,9.68
2023-05-07T04:53:22.491Z,9.72
2023-05-07T04:54:24.565Z,9.78
2023-05-07T04:55:29.232Z,9.81
2023-05-07T04:56:31.494Z,9.88
2023-05-07T04:57:37.012Z,9.94
2023-05-07T04:58:39.096Z,10.01
2023-05-07T04:59:43.735Z,10.04
2023-05-07T05:00:46.205Z,10.13
2023-05-07T05:01:50.995Z,10.21
2023-05-07T05:02:53.273Z,10.28
2023-05-07T05:03:58.135Z,10.37
2023-05-07T05:05:00.326Z,10.46
2023-05-07T05:06:07.722Z,10.58
2023-05-07T05:07:09.877Z,10.66
2023-05-07T05:08:14.529Z,10.76
2023-05-07T05:09:17.185Z,10.84
2023-05-07T05:10:24.488Z,10.90
2023-05-07T05:11:26.957Z,10.98
2023-05-07T05:12:31.583Z,11.04
2023-05-07T05:13:33.664Z,11.07
2023-05-07T05:14:38.316Z,11.11
2023-05-07T05:15:40.448Z,11.15
2023-05-07T05:16:45.142Z,11.20
2023-05-07T05:17:47.278Z,11.21
2023-05-07T05:18:53.213Z,11.24
2023-05-07T05:19:55.249Z,11.26
2023-05-07T05:20:59.901Z,11.28
2023-05-07T05:22:05.262Z,11.31
2023-05-07T05:23:11.856Z,11.32
2023-05-07T05:24:13.970Z,11.31
2023-05-07T05:25:18.881Z,11.33
2023-05-07T05:26:22.330Z,11.35
2023-05-07T05:27:26.955Z,11.34
2023-05-07T05:28:29.230Z,11.35
2023-05-07T05:29:33.963Z,11.37
2023-05-07T05:30:36.393Z,11.39
2023-05-07T05:31:42.927Z,11.41
2023-05-07T05:32:45.145Z,11.41
2023-05-07T05:33:49.956Z,11.41
2023-05-07T05:34:52.229Z,11.40
2023-05-07T05:35:57.969Z,11.40
2023-05-07T05:37:00.648Z,11.40
2023-05-07T05:38:07.902Z,11.38
2023-05-07T05:39:09.993Z,11.39
2023-05-07T05:40:15.744Z,11.37
2023-05-07T05:41:17.842Z,11.38
2023-05-07T05:42:22.441Z,11.40
2023-05-07T05:43:24.651Z,11.39
2023-05-07T05:44:29.335Z,11.42
2023-05-07T05:45:31.377Z,11.45
2023-05-07T05:46:37.316Z,11.47
2023-05-07T05:47:39.792Z,11.50
2023-05-07T05:48:44.472Z,11.53
2023-05-07T05:49:46.523Z,11.57
2023-05-07T05:50:51.239Z,11.57
2023-05-07T05:51:53.307Z,11.58
2023-05-07T05:53:00.491Z,11.59
2023-05-07T05:54:05.861Z,11.62
2023-05-07T05:55:11.535Z,11.62
2023-05-07T05:56:13.712Z,11.66
2023-05-07T05:57:18.465Z,11.71
2023-05-07T05:58:20.713Z,11.76
2023-05-07T05:59:25.384Z,11.82
2023-05-07T06:00:27.885Z,11.92
2023-05-07T06:01:32.589Z,11.99
2023-05-07T06:02:34.714Z,12.07
2023-05-07T06:03:39.445Z,12.18
2023-05-07T06:04:41.630Z,12.29
2023-05-07T06:05:46.272Z,12.41
2023-05-07T06:06:48.314Z,12.52
2023-05-07T06:07:53.028Z,12.66
2023-05-07T06:08:55.208Z,12.84
2023-05-07T06:10:02.454Z,13.01
2023-05-07T06:11:04.588Z,13.20
2023-05-07T06:12:09.662Z,13.35
2023-05-07T06:13:11.769Z,13.53
2023-05-07T06:14:16.444Z,13.67
2023-05-07T06:15:18.582Z,13.87
2023-05-07T06:16:23.285Z,14.00
2023-05-07T06:17:25.562Z,14.15
2023-05-07T06:18:30.221Z,14.27
2023-05-07T06:19:34.986Z,14.39
2023-05-07T06:20:37.048Z,14.52
2023-05-07T06:21:42.544Z,14.68
2023-05-07T06:22:44.639Z,14.83
2023-05-07T06:23:49.291Z,14.98
2023-05-07T06:24:51.301Z,15.12
2023-05-07T06:25:58.514Z,15.28
2023-05-07T06:27:00.643Z,15.38
2023-05-07T06:28:05.446Z,15.43
2023-05-07T06:29:07.465Z,15.58
2023-05-07T06:30:12.901Z,15.69
2023-05-07T06:31:16.493Z,15.78
2023-05-07T06:32:22.305Z,15.89
2023-05-07T06:33:24.580Z,15.96
2023-05-07T06:34:29.414Z,16.04
2023-05-07T06:35:31.476Z,16.05
2023-05-07T06:36:36.220Z,16.12
2023-05-07T06:37:43.666Z,16.21
2023-05-07T06:38:45.706Z,16.24
2023-05-07T06:39:50.403Z,16.27
2023-05-07T06:40:57.193Z,16.34
2023-05-07T06:42:02.373Z,16.40
2023-05-07T06:43:04.522Z,16.48
2023-05-07T06:44:09.761Z,16.52
2023-05-07T06:45:12.775Z,16.52
2023-05-07T06:46:18.430Z,16.60
2023-05-07T06:47:20.852Z,16.67
2023-05-07T06:48:25.564Z,16.68
2023-05-07T06:49:27.656Z,16.72
2023-05-07T06:50:32.336Z,16.76
2023-05-07T06:51:34.989Z,16.75
2023-05-07T06:52:40.366Z,16.74
2023-05-07T06:53:42.399Z,16.66
2023-05-07T06:54:47.050Z,16.71
2023-05-07T06:55:49.060Z,16.75
2023-05-07T06:56:56.321Z,16.71
2023-05-07T06:58:02.250Z,16.76
2023-05-07T06:59:07.662Z,16.75
2023-05-07T07:00:11.592Z,16.77
2023-05-07T07:01:17.666Z,16.83
2023-05-07T07:02:19.858Z,16.87
2023-05-07T07:03:24.527Z,16.89
2023-05-07T07:04:27.375Z,16.91
2023-05-07T07:05:32.257Z,16.95
2023-05-07T07:06:34.541Z,16.92
2023-05-07T07:07:39.338Z,16.94
2023-05-07T07:08:41.613Z,16.94
2023-05-07T07:09:46.284Z,16.94
2023-05-07T07:10:48.945Z,16.95
2023-05-07T07:11:56.665Z,16.96
2023-05-07T07:12:58.852Z,16.96
2023-05-07T07:14:03.598Z,17.00
2023-05-07T07:15:07.349Z,17.02
2023-05-07T07:16:12.020Z,17.06
2023-05-07T07:17:14.154Z,17.12
2023-05-07T07:18:18.823Z,17.08
2023-05-07T07:19:21.553Z,17.14
2023-05-07T07:20:26.295Z,17.21
2023-05-07T07:21:28.361Z,17.28
2023-05-07T07:22:33.309Z,17.37
2023-05-07T07:23:35.504Z,17.43
2023-05-07T07:24:40.406Z,17.49
2023-05-07T07:25:42.922Z,17.54
2023-05-07T07:26:47.742Z,17.52
2023-05-07T07:27:55.566Z,17.62
2023-05-07T07:28:57.708Z,17.70
2023-05-07T07:30:02.425Z,17.76
2023-05-07T07:31:04.758Z,17.83
2023-05-07T07:32:09.531Z,17.84
2023-05-07T07:33:11.776Z,17.85
2023-05-07T07:34:16.847Z,17.85
2023-05-07T07:35:19.047Z,17.92
2023-05-07T07:36:27.257Z,17.94
2023-05-07T07:37:34.360Z,18.06
2023-05-07T07:38:39.103Z,18.20
2023-05-07T07:39:43.844Z,18.32
2023-05-07T07:40:47.305Z,18.23
2023-05-07T07:41:51.915Z,18.34
2023-05-07T07:42:57.965Z,18.44
2023-05-07T07:44:04.834Z,18.54
2023-05-07T07:45:11.587Z,18.56
2023-05-07T07:46:13.915Z,18.71
2023-05-07T07:47:18.622Z,18.80
2023-05-07T07:48:23.429Z,18.91
2023-05-07T07:49:25.597Z,18.94
2023-05-07T07:50:43.627Z,19.02
2023-05-07T07:51:49.687Z,19.01
2023-05-07T07:52:51.760Z,19.13
2023-05-07T07:53:56.618Z,19.24
2023-05-07T07:54:58.711Z,19.30
2023-05-07T07:56:05.623Z,19.40
2023-05-07T07:57:08.001Z,19.51
2023-05-07T07:58:15.338Z,19.60
2023-05-07T07:59:20.048Z,19.70
2023-05-07T08:00:24.906Z,19.70
2023-05-07T08:01:27.200Z,19.89
2023-05-07T08:02:32.070Z,19.93
2023-05-07T08:03:34.367Z,20.12
2023-05-07T08:04:39.360Z,20.25
2023-05-07T08:05:41.558Z,20.14
2023-05-07T08:06:46.279Z,20.01
2023-05-07T08:07:53.203Z,19.82
2023-05-07T08:09:00.590Z,19.92
2023-05-07T08:10:05.438Z,20.03
2023-05-07T08:11:07.747Z,20.26
2023-05-07T08:12:12.416Z,20.42
2023-05-07T08:13:17.376Z,20.62
2023-05-07T08:14:22.214Z,20.82
2023-05-07T08:15:24.366Z,21.08
2023-05-07T08:17:32.886Z,21.19
2023-05-07T08:18:37.576Z,21.39
2023-05-07T08:19:39.663Z,21.52
2023-05-07T08:20:44.462Z,21.14
2023-05-07T08:21:48.891Z,21.14
2023-05-07T08:22:53.642Z,20.91
2023-05-07T08:23:55.690Z,21.02
2023-05-07T08:25:01.867Z,21.23
2023-05-07T08:26:03.951Z,20.97
2023-05-07T08:27:08.696Z,21.28
2023-05-07T08:28:10.786Z,21.45
2023-05-07T08:29:18.060Z,21.51
2023-05-07T08:30:20.366Z,21.15
2023-05-07T08:31:25.310Z,21.30
2023-05-07T08:32:27.595Z,21.22
2023-05-07T08:33:32.305Z,21.54
2023-05-07T08:34:34.354Z,21.79
2023-05-07T08:35:39.008Z,22.19
2023-05-07T08:36:44.058Z,22.31
2023-05-07T08:37:49.044Z,21.97
2023-05-07T08:38:51.187Z,22.24
2023-05-07T08:39:55.867Z,22.42
2023-05-07T08:41:25.668Z,22.69
2023-05-07T08:42:29.884Z,22.76
2023-05-07T08:43:36.969Z,22.89
2023-05-07T08:44:44.331Z,22.89
2023-05-07T08:45:49.850Z,22.93
2023-05-07T08:46:55.557Z,22.38
2023-05-07T08:48:04.229Z,22.46
2023-05-07T08:49:07.012Z,22.24
2023-05-07T08:50:13.046Z,22.29
2023-05-07T08:51:22.851Z,22.27
2023-05-07T08:52:27.646Z,22.37
2023-05-07T08:53:29.865Z,22.54
2023-05-07T08:54:35.410Z,22.39
2023-05-07T08:55:37.528Z,22.58
2023-05-07T08:56:42.746Z,22.63
2023-05-07T08:57:44.897Z,22.70
2023-05-07T08:58:49.962Z,22.70
2023-05-07T08:59:54.814Z,22.61
2023-05-07T09:00:59.735Z,22.66
2023-05-07T09:02:02.003Z,22.69
2023-05-07T09:03:06.950Z,22.58
2023-05-07T09:04:11.997Z,22.60
2023-05-07T09:05:14.314Z,22.74
2023-05-07T09:06:19.537Z,22.80
2023-05-07T09:07:21.878Z,22.78
2023-05-07T09:08:28.821Z,22.94
2023-05-07T09:09:31.011Z,23.07
2023-05-07T09:10:37.611Z,23.15
2023-05-07T09:11:42.913Z,23.14
2023-05-07T09:12:45.044Z,23.18
2023-05-07T09:13:49.844Z,23.36
2023-05-07T09:14:54.550Z,23.49
2023-05-07T09:15:59.521Z,23.74
2023-05-07T09:17:04.180Z,23.98
2023-05-07T09:18:06.474Z,24.11
2023-05-07T09:19:11.346Z,24.39
2023-05-07T09:20:13.947Z,24.61
2023-05-07T09:21:19.220Z,24.83
2023-05-07T09:22:21.326Z,25.06
2023-05-07T09:23:26.073Z,25.26
2023-05-07T09:24:29.712Z,25.50
2023-05-07T09:25:36.330Z,25.51
2023-05-07T09:26:38.415Z,25.47
2023-05-07T09:27:43.258Z,25.40
2023-05-07T09:28:45.635Z,25.49
2023-05-07T09:29:50.345Z,25.43
2023-05-07T09:30:59.317Z,25.26
2023-05-07T09:32:01.473Z,24.96
2023-05-07T09:33:07.567Z,24.94
2023-05-07T09:34:09.844Z,25.01
2023-05-07T09:35:19.864Z,25.05
2023-05-07T09:36:22.315Z,24.99
2023-05-07T09:37:29.934Z,25.06
2023-05-07T09:38:32.923Z,25.19
2023-05-07T09:39:44.620Z,25.48
2023-05-07T09:40:47.265Z,25.67
2023-05-07T09:41:55.596Z,25.92
2023-05-07T09:42:57.712Z,26.02
2023-05-07T09:44:02.872Z,26.16
2023-05-07T09:45:07.829Z,26.21
2023-05-07T09:46:17.976Z,25.74
2023-05-07T09:47:21.518Z,25.90
2023-05-07T09:48:26.430Z,26.01
2023-05-07T09:49:31.342Z,26.35
2023-05-07T09:50:40.513Z,26.73
2023-05-07T09:51:54.297Z,26.97
2023-05-07T09:52:57.358Z,27.05
2023-05-07T09:54:04.517Z,27.33
2023-05-07T09:55:07.469Z,27.59
2023-05-07T09:56:12.353Z,27.83
2023-05-07T09:57:16.062Z,27.95
2023-05-07T09:58:24.217Z,27.60
2023-05-07T09:59:29.976Z,27.56
2023-05-07T10:00:35.955Z,27.49
2023-05-07T10:01:43.362Z,27.36
2023-05-07T10:03:21.830Z,27.07
2023-05-07T10:04:24.769Z,27.23
2023-05-07T10:05:30.075Z,27.30
2023-05-07T10:07:55.232Z,27.29
2023-05-07T10:08:59.447Z,27.30
2023-05-07T10:10:51.111Z,27.27
2023-05-07T10:11:56.216Z,26.89
2023-05-07T10:12:59.071Z,26.92
2023-05-07T10:14:07.348Z,26.94
2023-05-07T10:15:11.896Z,26.81
2023-05-07T10:16:17.444Z,26.62
2023-05-07T10:17:24.619Z,26.63
2023-05-07T10:18:33.917Z,26.64
2023-05-07T10:19:40.398Z,26.69
2023-05-07T10:22:48.624Z,26.93
2023-05-07T10:24:01.466Z,26.95
2023-05-07T10:25:06.085Z,27.17
2023-05-07T10:26:13.248Z,27.31
2023-05-07T10:27:17.243Z,27.57
2023-05-07T10:28:24.162Z,27.51
2023-05-07T10:29:36.105Z,27.87
2023-05-07T10:30:50.255Z,28.03
2023-05-07T10:32:04.346Z,28.20
2023-05-07T10:33:12.603Z,28.08
2023-05-07T10:34:20.749Z,28.24
2023-05-07T10:35:29.736Z,28.52
2023-05-07T10:36:32.240Z,28.64
2023-05-07T10:37:37.701Z,28.71
2023-05-07T10:38:43.133Z,28.97
2023-05-07T10:39:45.531Z,29.12
2023-05-07T10:40:50.242Z,28.95
2023-05-07T10:41:53.387Z,28.94
2023-05-07T10:43:00.637Z,28.71
2023-05-07T10:44:03.374Z,28.86
2023-05-07T10:45:17.991Z,28.88
2023-05-07T10:46:21.268Z,28.63
2023-05-07T10:47:26.044Z,28.69
2023-05-07T10:48:31.611Z,28.58
2023-05-07T10:49:36.353Z,28.65
2023-05-07T10:50:39.717Z,28.62
2023-05-07T10:51:46.991Z,28.99
2023-05-07T10:53:32.360Z,27.88
2023-05-07T10:54:37.486Z,27.90
2023-05-07T10:55:42.767Z,27.85
2023-05-07T10:56:45.376Z,27.37
2023-05-07T10:57:50.039Z,28.16
2023-05-07T10:58:52.136Z,28.50
2023-05-07T10:59:59.097Z,28.85
2023-05-07T11:01:02.681Z,29.25
2023-05-07T11:02:09.306Z,29.59
2023-05-07T11:03:21.052Z,29.96
2023-05-07T11:04:27.724Z,30.21
2023-05-07T11:05:37.334Z,30.15
2023-05-07T11:06:40.855Z,30.22
2023-05-07T11:07:59.451Z,30.27
2023-05-07T11:09:34.796Z,30.34
2023-05-07T11:10:52.734Z,30.51
2023-05-07T11:11:57.013Z,30.75
2023-05-07T11:13:01.741Z,30.68
2023-05-07T11:14:03.954Z,31.11
2023-05-07T11:15:10.387Z,31.11
2023-05-07T11:16:22.348Z,31.67
2023-05-07T11:17:24.506Z,30.93
2023-05-07T11:18:49.218Z,30.95
2023-05-07T11:19:55.574Z,31.34
2023-05-07T11:21:02.325Z,31.43
2023-05-07T11:22:05.045Z,31.58
2023-05-07T11:23:09.652Z,31.84
2023-05-07T11:24:14.491Z,32.07
2023-05-07T11:25:19.759Z,32.43
2023-05-07T11:26:24.754Z,32.64
2023-05-07T11:27:30.284Z,32.23
2023-05-07T11:28:37.864Z,32.84
2023-05-07T11:29:42.713Z,32.95
2023-05-07T11:30:45.293Z,33.01
2023-05-07T11:31:53.625Z,33.55
2023-05-07T11:32:56.184Z,33.99
2023-05-07T11:34:01.949Z,34.13
2023-05-07T11:35:11.093Z,34.27
2023-05-07T11:36:14.225Z,33.91
2023-05-07T11:37:21.280Z,33.89
2023-05-07T11:38:23.658Z,34.43
2023-05-07T11:39:29.808Z,34.30
2023-05-07T11:40:32.161Z,34.52
2023-05-07T11:41:40.602Z,34.77
2023-05-07T11:42:44.033Z,34.98
2023-05-07T11:44:00.011Z,34.82
2023-05-07T11:45:06.919Z,34.18
2023-05-07T11:46:11.542Z,34.39
2023-05-07T11:47:21.896Z,34.78
2023-05-07T11:48:24.098Z,34.93
2023-05-07T11:49:31.077Z,34.88
2023-05-07T11:50:35.883Z,34.95
2023-05-07T11:52:03.882Z,34.66
2023-05-07T11:53:09.258Z,34.12
2023-05-07T11:54:14.826Z,33.96
2023-05-07T11:55:23.168Z,33.56
2023-05-07T11:56:25.295Z,33.21
2023-05-07T11:57:31.084Z,32.94
2023-05-07T11:58:33.372Z,32.90
2023-05-07T11:59:43.113Z,32.85
2023-05-07T12:00:50.527Z,32.94
2023-05-07T12:01:55.340Z,32.95
2023-05-07T12:02:57.782Z,32.90
2023-05-07T12:04:02.662Z,32.90
2023-05-07T12:05:05.576Z,33.39
2023-05-07T12:06:13.824Z,33.70
2023-05-07T12:07:24.201Z,34.14
2023-05-07T12:08:26.348Z,34.20
2023-05-07T12:09:31.322Z,34.78
2023-05-07T12:10:33.678Z,34.57
2023-05-07T12:11:40.937Z,35.11
2023-05-07T12:12:45.669Z,34.07
2023-05-07T12:13:50.473Z,34.62
2023-05-07T12:14:53.469Z,34.99
2023-05-07T12:15:59.651Z,35.39
2023-05-07T12:17:06.060Z,34.61
2023-05-07T12:18:09.746Z,34.78
2023-05-07T12:19:16.257Z,34.67
2023-05-07T12:20:18.678Z,34.95
2023-05-07T12:21:27.431Z,32.35
2023-05-07T12:22:30.141Z,33.16
2023-05-07T12:23:35.003Z,33.70
2023-05-07T12:24:47.941Z,33.93
2023-05-07T12:25:50.700Z,33.69
2023-05-07T12:26:55.502Z,34.05
2023-05-07T12:27:59.997Z,33.37
2023-05-07T12:29:04.865Z,33.44
2023-05-07T12:30:10.966Z,32.83
2023-05-07T12:31:18.619Z,32.45
2023-05-07T12:32:22.256Z,32.26
2023-05-07T12:33:29.356Z,31.97
2023-05-07T12:34:32.869Z,31.76
2023-05-07T12:35:42.017Z,31.15
2023-05-07T12:36:52.273Z,30.95
2023-05-07T12:37:56.672Z,30.57
2023-05-07T12:39:03.404Z,29.97
2023-05-07T12:40:07.652Z,29.69
2023-05-07T12:41:14.011Z,29.49
2023-05-07T12:42:17.530Z,29.00
2023-05-07T12:43:23.077Z,28.83
2023-05-07T12:44:28.426Z,28.32
2023-05-07T12:45:30.723Z,28.27
2023-05-07T12:46:35.774Z,28.16
2023-05-07T12:47:38.885Z,28.06
2023-05-07T12:48:48.709Z,27.93
2023-05-07T12:49:50.906Z,27.64
2023-05-07T12:50:56.981Z,27.69
2023-05-07T12:52:02.325Z,27.72
2023-05-07T12:53:09.051Z,27.55
2023-05-07T12:54:13.898Z,27.21
2023-05-07T12:55:18.024Z,27.25
2023-05-07T12:56:22.764Z,27.22
2023-05-07T12:57:24.881Z,27.17
2023-05-07T12:58:31.344Z,26.63
2023-05-07T12:59:34.606Z,26.49
2023-05-07T13:00:40.853Z,26.18
2023-05-07T13:01:45.560Z,25.98
2023-05-07T13:02:50.890Z,25.88
2023-05-07T13:03:55.913Z,25.65
2023-05-07T13:04:58.126Z,25.44
2023-05-07T13:06:04.587Z,25.26
2023-05-07T13:07:09.473Z,25.13
2023-05-07T13:08:14.646Z,25.07
2023-05-07T13:09:16.846Z,24.73
2023-05-07T13:10:21.916Z,24.69
2023-05-07T13:11:27.180Z,24.58
2023-05-07T13:12:30.182Z,24.51
2023-05-07T13:13:35.908Z,24.09
2023-05-07T13:14:38.058Z,24.08
2023-05-07T13:15:43.066Z,24.02
2023-05-07T13:16:45.550Z,23.92
2023-05-07T13:17:50.747Z,23.80
2023-05-07T13:18:55.718Z,23.75
2023-05-07T13:19:57.824Z,23.70
2023-05-07T13:21:11.442Z,23.62
2023-05-07T13:22:16.362Z,23.40
2023-05-07T13:23:21.767Z,23.38
2023-05-07T13:24:23.868Z,23.21
2023-05-07T13:25:28.764Z,23.07
2023-05-07T13:26:31.589Z,22.85
2023-05-07T13:27:37.948Z,22.70
2023-05-07T13:28:40.109Z,22.35
2023-05-07T13:29:44.846Z,22.21
2023-05-07T13:30:46.982Z,21.97
2023-05-07T13:31:51.640Z,21.76
2023-05-07T13:32:56.482Z,21.30
2023-05-07T13:34:01.410Z,21.05
2023-05-07T13:35:03.825Z,20.86
2023-05-07T13:36:09.259Z,20.82
2023-05-07T13:37:12.414Z,20.52
2023-05-07T13:38:19.781Z,20.49
2023-05-07T13:39:21.956Z,20.32
2023-05-07T13:40:26.707Z,20.16
2023-05-07T13:41:29.169Z,20.03
2023-05-07T13:42:34.600Z,19.91
2023-05-07T13:43:36.644Z,19.78
2023-05-07T13:44:41.298Z,19.62
2023-05-07T13:45:45.959Z,19.57
2023-05-07T13:46:48.061Z,19.55
2023-05-07T13:47:52.805Z,19.52
2023-05-07T13:48:54.874Z,19.49
2023-05-07T13:49:59.512Z,19.51
2023-05-07T13:51:01.549Z,19.49
2023-05-07T13:52:41.687Z,19.45
2023-05-07T13:53:46.331Z,19.42
2023-05-07T13:54:50.963Z,19.39
2023-05-07T13:55:53.511Z,19.39
2023-05-07T13:56:58.136Z,19.34
2023-05-07T13:58:01.948Z,19.29
2023-05-07T13:59:06.572Z,19.23
2023-05-07T14:00:10.603Z,19.22
2023-05-07T14:01:15.469Z,19.21
2023-05-07T14:02:17.698Z,19.16
2023-05-07T14:03:22.558Z,19.13
2023-05-07T14:04:24.982Z,19.11
2023-05-07T14:05:30.409Z,19.12
2023-05-07T14:06:32.510Z,19.06
2023-05-07T14:07:37.408Z,19.04
2023-05-07T14:08:39.434Z,19.03
2023-05-07T14:09:46.640Z,19.00
2023-05-07T14:10:51.274Z,18.98
2023-05-07T14:11:53.528Z,18.92
2023-05-07T14:12:58.204Z,18.86
2023-05-07T14:14:00.266Z,18.88
2023-05-07T14:15:05.194Z,18.86
2023-05-07T14:16:07.559Z,18.88
2023-05-07T14:17:12.334Z,18.92
2023-05-07T14:18:14.475Z,18.94
2023-05-07T14:19:19.118Z,18.95
2023-05-07T14:20:22.022Z,18.88
2023-05-07T14:21:26.815Z,18.90
2023-05-07T14:22:28.868Z,18.69